09:39
Airports
History
Links
Donate
Help keep this website running!
PayPal
Bitcoin
This page is community maintained. The information is intended for PC simulator navigation or reference.
Always use approved charts for navigation.
3J4
Bald Eagle Air Park
Bald Eagle Air Park (3J4)
Southaven, Mississippi, United States (38672)
4
Lat/Lng:34° 54' 36.34" N / 89° 57' 33.33" W
34.910095 / -89.959257
Elevation:405'ft / 123mMSL
ID / ICAO:3J4
Runways:1
Longest:18-36
Grass 917m / 3,010ft
Nearby Weather08:54 GMT 2017-09-22
Nearby weather at KMEM, Memphis Intl located 9.2 nautical miles from 3J4
Altimeter: 30.00
Visibility: 10.0 statute miles
Wind: 0 knots (from 000°)
Temp: 24°c / 75°f
Humidity: 83.3%

METAR: KMEM 220854Z 00000KT 10SM FEW120 24/21 A3000 RMK AO2 SLP155 T02440211 55002

(Powered by phpweather)
Nearby VORs <50NM
Nearby NDBs
Runway 18 / 36
Dimensions:917.3 x 21.3m 3010' x 70'ft
Surface:Grass
Runway 18 [A]Runway 36 [B]
Heading:181°TH 001°TH
Lat:
Lng:
34° 54' 51.15"N
89° 57' 32.69"W
34° 54' 21.54"N
89° 57' 33.95"W
User Notes and Comments
34° 54' 36.34" N / 89° 57' 33.33" W
Distance To
Airport ID:
Nearby Airports
(R) Vaiden Landing 6.3 NM
MS64 SE 132°
(R) Eagles Ridge 8.2 NM
1MS6 SSE 161°
4 Hernando Village Airpark, Inc 8.9 NM
H75 SSW 209°
(C) Memphis Intl 9.2 NM
KMEM ( WX ) N 353°
4 Davis Field 9.9 NM
MS62 NE 55°
(C) Olive Branch 10.9 NM
KOLV ENE 64°
4 Twinkletown 11.9 NM
2M6 W 277°
VFR Chart
Flight Planning at SkyVector.com